Terminal Aerodrome Forecast
Issued by NWS Pocatello, ID

Home | Current Version | Previous Version | Text Only | Print | Product List | Glossary On
Versions: 1 2 3 4 5 6 7 8 9 10 11 12 13 14 15 16 17 18 19 20 21
932
FTUS45 KPIH 090523
TAFBYI
TAF
KBYI 090523Z 0906/1006 06004KT 1/2SM FZFG OVC002
     FM091900 05007KT P6SM BKN003 OVC180
     FM092100 06008KT P6SM SCT008 SCT180
     FM100300 VRB04KT 6SM BR SCT003 OVC006=

USA.gov is the U.S. government's official web portal to all federal, state and local government web resources and services.